sensor_id;sensor_type;location;lat;lon;timestamp;pressure;altitude;pressure_sealevel;temperature;humidity
35758;BME280;21879;50.110;18.900;2023-03-03T00:05:10;98927.23;;;2.71;57.78
35758;BME280;21879;50.110;18.900;2023-03-03T00:15:38;98920.02;;;2.64;57.36
35758;BME280;21879;50.110;18.900;2023-03-03T00:26:12;98922.94;;;2.65;56.88
35758;BME280;21879;50.110;18.900;2023-03-03T00:36:40;98922.86;;;2.42;56.82
35758;BME280;21879;50.110;18.900;2023-03-03T00:47:17;98917.28;;;2.19;56.97
35758;BME280;21879;50.110;18.900;2023-03-03T00:57:47;98906.94;;;2.11;56.85
35758;BME280;21879;50.110;18.900;2023-03-03T01:08:11;98902.88;;;2.01;57.22
35758;BME280;21879;50.110;18.900;2023-03-03T01:18:36;98892.81;;;1.96;57.21
35758;BME280;21879;50.110;18.900;2023-03-03T01:29:00;98881.73;;;2.05;57.34
35758;BME280;21879;50.110;18.900;2023-03-03T01:39:24;98887.12;;;2.01;57.59
35758;BME280;21879;50.110;18.900;2023-03-03T01:49:50;98873.92;;;2.02;57.94
35758;BME280;21879;50.110;18.900;2023-03-03T02:00:19;98873.81;;;1.97;57.53
35758;BME280;21879;50.110;18.900;2023-03-03T02:10:44;98872.24;;;1.78;56.99
35758;BME280;21879;50.110;18.900;2023-03-03T02:21:11;98867.22;;;1.70;57.08
35758;BME280;21879;50.110;18.900;2023-03-03T02:31:38;98874.95;;;1.53;57.06
35758;BME280;21879;50.110;18.900;2023-03-03T02:42:07;98881.24;;;1.34;56.77
35758;BME280;21879;50.110;18.900;2023-03-03T02:52:34;98874.84;;;1.26;57.02
35758;BME280;21879;50.110;18.900;2023-03-03T03:02:58;98876.16;;;1.24;56.93
35758;BME280;21879;50.110;18.900;2023-03-03T03:13:23;98876.90;;;1.37;57.42
35758;BME280;21879;50.110;18.900;2023-03-03T03:23:47;98871.84;;;1.40;58.13
35758;BME280;21879;50.110;18.900;2023-03-03T03:34:12;98864.24;;;1.50;57.71
35758;BME280;21879;50.110;18.900;2023-03-03T03:44:36;98859.85;;;1.40;57.19
35758;BME280;21879;50.110;18.900;2023-03-03T03:55:00;98863.31;;;1.18;56.90
35758;BME280;21879;50.110;18.900;2023-03-03T04:05:24;98860.71;;;1.06;57.19
35758;BME280;21879;50.110;18.900;2023-03-03T04:15:48;98856.26;;;0.89;57.09
35758;BME280;21879;50.110;18.900;2023-03-03T04:26:13;98862.71;;;0.87;57.34
35758;BME280;21879;50.110;18.900;2023-03-03T04:36:37;98880.11;;;0.96;57.26
35758;BME280;21879;50.110;18.900;2023-03-03T04:47:02;98874.50;;;1.03;57.26
35758;BME280;21879;50.110;18.900;2023-03-03T04:57:26;98868.67;;;0.87;57.08
35758;BME280;21879;50.110;18.900;2023-03-03T05:07:50;98865.90;;;0.69;57.08
35758;BME280;21879;50.110;18.900;2023-03-03T05:18:15;98868.54;;;0.56;56.98
35758;BME280;21879;50.110;18.900;2023-03-03T05:28:39;98872.91;;;0.53;57.00
35758;BME280;21879;50.110;18.900;2023-03-03T05:39:03;98885.24;;;0.49;56.97
35758;BME280;21879;50.110;18.900;2023-03-03T05:49:28;98891.94;;;0.49;57.06
35758;BME280;21879;50.110;18.900;2023-03-03T05:59:52;98914.23;;;0.57;57.09
35758;BME280;21879;50.110;18.900;2023-03-03T06:10:16;98923.38;;;0.69;57.39
35758;BME280;21879;50.110;18.900;2023-03-03T06:20:40;98946.05;;;0.71;57.46
35758;BME280;21879;50.110;18.900;2023-03-03T06:31:05;98964.59;;;0.73;57.55
35758;BME280;21879;50.110;18.900;2023-03-03T06:41:29;98975.52;;;0.77;57.35
35758;BME280;21879;50.110;18.900;2023-03-03T06:51:54;98979.61;;;0.37;57.50
35758;BME280;21879;50.110;18.900;2023-03-03T07:02:19;98962.09;;;-0.22;59.00
35758;BME280;21879;50.110;18.900;2023-03-03T07:12:44;98977.23;;;-0.05;61.24
35758;BME280;21879;50.110;18.900;2023-03-03T07:23:17;98980.64;;;0.42;62.32
35758;BME280;21879;50.110;18.900;2023-03-03T07:33:45;98983.52;;;0.76;62.62
35758;BME280;21879;50.110;18.900;2023-03-03T07:44:16;98981.19;;;0.93;62.71
35758;BME280;21879;50.110;18.900;2023-03-03T07:54:43;98994.23;;;0.84;62.58
35758;BME280;21879;50.110;18.900;2023-03-03T08:05:26;98979.67;;;0.83;63.34
35758;BME280;21879;50.110;18.900;2023-03-03T08:15:53;98995.67;;;0.81;63.39
35758;BME280;21879;50.110;18.900;2023-03-03T08:26:20;98992.73;;;0.85;63.71
35758;BME280;21879;50.110;18.900;2023-03-03T08:36:46;98998.55;;;0.85;63.81
35758;BME280;21879;50.110;18.900;2023-03-03T08:47:10;99013.16;;;0.92;63.81
35758;BME280;21879;50.110;18.900;2023-03-03T08:57:34;99025.45;;;0.96;64.12
35758;BME280;21879;50.110;18.900;2023-03-03T09:07:59;99023.88;;;1.05;64.41
35758;BME280;21879;50.110;18.900;2023-03-03T09:18:31;99014.23;;;1.19;64.21
35758;BME280;21879;50.110;18.900;2023-03-03T09:29:06;99010.48;;;1.14;64.54
35758;BME280;21879;50.110;18.900;2023-03-03T09:39:36;99013.55;;;1.19;64.65
35758;BME280;21879;50.110;18.900;2023-03-03T09:50:08;99008.42;;;1.25;65.01
35758;BME280;21879;50.110;18.900;2023-03-03T10:00:44;99007.13;;;1.28;65.31
35758;BME280;21879;50.110;18.900;2023-03-03T10:11:18;99020.67;;;1.28;65.72
35758;BME280;21879;50.110;18.900;2023-03-03T10:21:49;99039.11;;;1.58;65.81
35758;BME280;21879;50.110;18.900;2023-03-03T10:32:41;99023.42;;;1.71;65.50
35758;BME280;21879;50.110;18.900;2023-03-03T10:43:20;99038.10;;;1.53;65.71
35758;BME280;21879;50.110;18.900;2023-03-03T10:54:06;99039.92;;;1.61;66.33
35758;BME280;21879;50.110;18.900;2023-03-03T11:04:43;99035.80;;;1.67;66.51
35758;BME280;21879;50.110;18.900;2023-03-03T11:15:31;99036.04;;;1.75;66.70
35758;BME280;21879;50.110;18.900;2023-03-03T11:26:06;99036.71;;;1.68;66.56
35758;BME280;21879;50.110;18.900;2023-03-03T11:36:35;99032.48;;;1.70;66.65
35758;BME280;21879;50.110;18.900;2023-03-03T11:47:01;99031.60;;;1.64;66.89
35758;BME280;21879;50.110;18.900;2023-03-03T11:57:31;99028.13;;;1.57;66.97
35758;BME280;21879;50.110;18.900;2023-03-03T12:08:06;99028.54;;;1.59;66.95
35758;BME280;21879;50.110;18.900;2023-03-03T12:18:42;99021.72;;;1.60;67.01
35758;BME280;21879;50.110;18.900;2023-03-03T12:29:18;99014.21;;;1.67;66.69
35758;BME280;21879;50.110;18.900;2023-03-03T12:39:57;99009.63;;;1.74;67.00
35758;BME280;21879;50.110;18.900;2023-03-03T12:50:33;98998.92;;;1.77;66.30
35758;BME280;21879;50.110;18.900;2023-03-03T13:01:07;98990.47;;;1.81;66.96
35758;BME280;21879;50.110;18.900;2023-03-03T13:11:51;98982.27;;;2.00;66.24
35758;BME280;21879;50.110;18.900;2023-03-03T13:22:30;98984.48;;;2.11;66.35
35758;BME280;21879;50.110;18.900;2023-03-03T13:32:58;98985.51;;;2.11;66.09
35758;BME280;21879;50.110;18.900;2023-03-03T13:43:28;98982.89;;;2.10;65.72
35758;BME280;21879;50.110;18.900;2023-03-03T13:54:00;98978.52;;;2.06;65.70
35758;BME280;21879;50.110;18.900;2023-03-03T14:04:37;98975.07;;;2.06;65.57
35758;BME280;21879;50.110;18.900;2023-03-03T14:15:17;98970.67;;;2.02;66.10
35758;BME280;21879;50.110;18.900;2023-03-03T14:25:56;98968.61;;;1.90;66.05
35758;BME280;21879;50.110;18.900;2023-03-03T14:36:26;98966.05;;;1.85;65.72
35758;BME280;21879;50.110;18.900;2023-03-03T14:47:16;98961.91;;;1.90;65.62
35758;BME280;21879;50.110;18.900;2023-03-03T14:57:43;98964.49;;;2.02;65.55
35758;BME280;21879;50.110;18.900;2023-03-03T15:08:12;98956.59;;;2.19;65.33
35758;BME280;21879;50.110;18.900;2023-03-03T15:18:59;98961.59;;;2.21;64.98
35758;BME280;21879;50.110;18.900;2023-03-03T15:29:34;98959.71;;;2.28;64.94
35758;BME280;21879;50.110;18.900;2023-03-03T15:40:03;98957.52;;;2.28;64.14
35758;BME280;21879;50.110;18.900;2023-03-03T15:50:40;98953.13;;;2.31;64.57
35758;BME280;21879;50.110;18.900;2023-03-03T16:01:15;98953.38;;;2.41;63.97
35758;BME280;21879;50.110;18.900;2023-03-03T16:11:45;98953.09;;;2.43;63.68
35758;BME280;21879;50.110;18.900;2023-03-03T16:22:34;98951.52;;;2.54;63.57
35758;BME280;21879;50.110;18.900;2023-03-03T16:33:16;98956.77;;;2.58;63.16
35758;BME280;21879;50.110;18.900;2023-03-03T16:43:48;98970.91;;;2.60;63.19
35758;BME280;21879;50.110;18.900;2023-03-03T16:54:22;98978.11;;;2.61;63.28
35758;BME280;21879;50.110;18.900;2023-03-03T17:04:54;98975.84;;;2.72;63.36
35758;BME280;21879;50.110;18.900;2023-03-03T17:15:33;98977.70;;;2.91;63.21
35758;BME280;21879;50.110;18.900;2023-03-03T17:26:07;98974.45;;;2.85;62.87
35758;BME280;21879;50.110;18.900;2023-03-03T17:36:43;98980.19;;;2.94;62.90
35758;BME280;21879;50.110;18.900;2023-03-03T17:47:12;98984.51;;;3.09;62.50
35758;BME280;21879;50.110;18.900;2023-03-03T17:57:53;98978.27;;;2.80;62.20
35758;BME280;21879;50.110;18.900;2023-03-03T18:08:36;98988.11;;;2.75;62.76
35758;BME280;21879;50.110;18.900;2023-03-03T18:19:24;98988.54;;;2.72;62.77
35758;BME280;21879;50.110;18.900;2023-03-03T18:30:17;98985.67;;;2.67;62.60
35758;BME280;21879;50.110;18.900;2023-03-03T18:40:50;98986.81;;;2.46;62.40
35758;BME280;21879;50.110;18.900;2023-03-03T18:51:47;98988.45;;;2.37;62.67
35758;BME280;21879;50.110;18.900;2023-03-03T19:02:19;98976.84;;;2.26;62.88
35758;BME280;21879;50.110;18.900;2023-03-03T19:12:50;98973.55;;;2.06;63.38
35758;BME280;21879;50.110;18.900;2023-03-03T19:23:18;98970.16;;;1.91;63.95
35758;BME280;21879;50.110;18.900;2023-03-03T19:33:49;98962.83;;;1.97;64.18
35758;BME280;21879;50.110;18.900;2023-03-03T19:44:33;98962.48;;;1.97;64.63
35758;BME280;21879;50.110;18.900;2023-03-03T19:55:22;98969.34;;;2.03;64.51
35758;BME280;21879;50.110;18.900;2023-03-03T20:05:49;98964.06;;;1.99;64.68
35758;BME280;21879;50.110;18.900;2023-03-03T20:16:30;98965.80;;;2.06;64.86
35758;BME280;21879;50.110;18.900;2023-03-03T20:27:03;98958.75;;;1.99;65.11
35758;BME280;21879;50.110;18.900;2023-03-03T20:37:38;98959.02;;;1.85;65.26
35758;BME280;21879;50.110;18.900;2023-03-03T20:48:19;98965.72;;;1.62;65.41
35758;BME280;21879;50.110;18.900;2023-03-03T20:58:57;98965.09;;;1.58;65.95
35758;BME280;21879;50.110;18.900;2023-03-03T21:09:29;98962.52;;;1.69;66.24
35758;BME280;21879;50.110;18.900;2023-03-03T21:19:53;98943.61;;;1.85;65.86
35758;BME280;21879;50.110;18.900;2023-03-03T21:30:18;98928.88;;;1.80;66.11
35758;BME280;21879;50.110;18.900;2023-03-03T21:40:43;98919.88;;;1.77;66.15
35758;BME280;21879;50.110;18.900;2023-03-03T21:51:08;98915.04;;;1.75;66.22
35758;BME280;21879;50.110;18.900;2023-03-03T22:01:33;98907.35;;;1.88;66.51
35758;BME280;21879;50.110;18.900;2023-03-03T22:12:01;98898.02;;;1.98;66.50
35758;BME280;21879;50.110;18.900;2023-03-03T22:22:26;98893.20;;;1.85;66.72
35758;BME280;21879;50.110;18.900;2023-03-03T22:32:50;98878.80;;;1.85;66.51
35758;BME280;21879;50.110;18.900;2023-03-03T22:43:18;98860.91;;;1.59;66.72
35758;BME280;21879;50.110;18.900;2023-03-03T22:53:43;98845.55;;;1.49;66.87
35758;BME280;21879;50.110;18.900;2023-03-03T23:04:07;98832.30;;;1.41;67.19
35758;BME280;21879;50.110;18.900;2023-03-03T23:14:32;98820.41;;;1.38;67.59
35758;BME280;21879;50.110;18.900;2023-03-03T23:24:57;98809.10;;;1.45;67.58
35758;BME280;21879;50.110;18.900;2023-03-03T23:35:21;98809.91;;;1.37;67.49
35758;BME280;21879;50.110;18.900;2023-03-03T23:45:46;98792.84;;;1.21;67.93
35758;BME280;21879;50.110;18.900;2023-03-03T23:56:11;98797.71;;;1.18;68.21
